Time,TemperatureF,DewpointF,PressureIn,WindDirection,WindDirectionDegrees,WindSpeedMPH,WindSpeedGustMPH,Humidity,HourlyPrecipIn,Conditions,Clouds,dailyrainin,SoftwareType,DateUTC
2013-06-30 00:01:00,64.8,59.5,30.24,South,180,0.0,0.0,83,0.00,,---,0.00,VWS V14.01,2013-06-30 07:01:00,
2013-06-30 00:06:00,64.4,58.8,30.24,South,180,0.0,0.0,82,0.00,,---,0.00,VWS V14.01,2013-06-30 07:06:00,
2013-06-30 00:11:00,64.4,58.8,30.24,South,180,0.0,0.0,82,0.00,,---,0.00,VWS V14.01,2013-06-30 07:11:00,
2013-06-30 00:16:00,64.3,58.7,30.24,South,180,0.4,0.4,82,0.00,,---,0.00,VWS V14.01,2013-06-30 07:16:00,
2013-06-30 00:21:00,64.1,58.5,30.24,South,180,0.7,0.7,82,0.00,,---,0.00,VWS V14.01,2013-06-30 07:21:00,
2013-06-30 00:26:00,64.1,58.8,30.24,South,180,0.7,0.7,83,0.00,,---,0.00,VWS V14.01,2013-06-30 07:26:00,
2013-06-30 00:31:00,63.7,58.5,30.24,South,180,0.4,0.4,83,0.00,,---,0.00,VWS V14.01,2013-06-30 07:31:00,
2013-06-30 00:36:00,63.7,58.5,30.24,South,180,0.0,0.0,83,0.00,,---,0.00,VWS V14.01,2013-06-30 07:36:00,
2013-06-30 00:41:00,63.7,58.5,30.24,South,180,0.0,0.0,83,0.00,,---,0.00,VWS V14.01,2013-06-30 07:41:00,
2013-06-30 00:46:00,63.5,58.2,30.24,South,180,0.0,0.0,83,0.00,,---,0.00,VWS V14.01,2013-06-30 07:46:00,
2013-06-30 00:51:00,63.4,58.2,30.24,South,180,0.0,0.0,83,0.00,,---,0.00,VWS V14.01,2013-06-30 07:51:00,
2013-06-30 00:56:00,63.2,58.0,30.24,South,180,0.9,0.9,83,0.00,,---,0.00,VWS V14.01,2013-06-30 07:56:00,
2013-06-30 01:01:00,63.0,57.8,30.24,South,180,0.9,0.9,83,0.00,,---,0.00,VWS V14.01,2013-06-30 08:01:00,
2013-06-30 01:06:00,63.0,57.8,30.24,South,180,0.4,0.9,83,0.00,,---,0.00,VWS V14.01,2013-06-30 08:06:00,
2013-06-30 01:11:00,62.6,57.4,30.24,South,180,0.7,0.7,83,0.00,,---,0.00,VWS V14.01,2013-06-30 08:11:00,
2013-06-30 01:15:00,62.6,57.7,30.24,South,180,0.4,0.7,84,0.00,,---,0.00,VWS V14.01,2013-06-30 08:15:00,
2013-06-30 01:21:00,62.6,57.7,30.23,South,180,0.7,0.7,84,0.00,,---,0.00,VWS V14.01,2013-06-30 08:21:00,
2013-06-30 01:26:00,62.5,57.6,30.24,South,180,0.0,0.2,84,0.00,,---,0.00,VWS V14.01,2013-06-30 08:26:00,
2013-06-30 01:31:00,62.3,57.4,30.23,South,180,0.7,0.7,84,0.00,,---,0.00,VWS V14.01,2013-06-30 08:31:00,
2013-06-30 01:35:00,62.3,57.4,30.23,South,180,0.4,0.4,84,0.00,,---,0.00,VWS V14.01,2013-06-30 08:35:00,
2013-06-30 01:40:00,62.1,57.2,30.23,South,180,0.7,0.7,84,0.00,,---,0.00,VWS V14.01,2013-06-30 08:40:00,
2013-06-30 01:45:00,61.9,57.0,30.23,South,180,1.3,1.3,84,0.00,,---,0.00,VWS V14.01,2013-06-30 08:45:00,
2013-06-30 01:50:00,61.9,57.3,30.23,South,180,0.9,0.9,85,0.00,,---,0.00,VWS V14.01,2013-06-30 08:50:00,
2013-06-30 01:55:00,61.7,57.2,30.23,South,180,0.7,0.7,85,0.00,,---,0.00,VWS V14.01,2013-06-30 08:55:00,
2013-06-30 02:00:00,61.7,57.2,30.23,South,180,0.7,0.7,85,0.00,,---,0.00,VWS V14.01,2013-06-30 09:00:00,
2013-06-30 02:05:00,61.6,57.0,30.23,South,180,1.1,1.1,85,0.00,,---,0.00,VWS V14.01,2013-06-30 09:05:00,
2013-06-30 02:10:00,61.6,57.0,30.22,South,180,1.3,1.3,85,0.00,,---,0.00,VWS V14.01,2013-06-30 09:10:00,
2013-06-30 02:15:00,61.4,56.9,30.22,South,180,0.7,0.9,85,0.00,,---,0.00,VWS V14.01,2013-06-30 09:15:00,
2013-06-30 02:20:00,61.4,56.9,30.22,South,180,0.9,0.9,85,0.00,,---,0.00,VWS V14.01,2013-06-30 09:20:00,
2013-06-30 02:25:00,61.4,56.9,30.22,South,180,1.1,1.1,85,0.00,,---,0.00,VWS V14.01,2013-06-30 09:25:00,
2013-06-30 02:30:00,61.4,57.2,30.22,South,180,0.7,0.7,86,0.00,,---,0.00,VWS V14.01,2013-06-30 09:30:00,
2013-06-30 02:35:00,61.2,57.0,30.22,South,180,0.0,0.0,86,0.00,,---,0.00,VWS V14.01,2013-06-30 09:35:00,
2013-06-30 02:40:00,61.2,56.7,30.22,South,180,0.0,0.0,85,0.00,,---,0.00,VWS V14.01,2013-06-30 09:40:00,
2013-06-30 02:45:00,61.2,57.0,30.22,South,180,1.3,1.3,86,0.00,,---,0.00,VWS V14.01,2013-06-30 09:45:00,
2013-06-30 02:50:00,61.0,56.8,30.22,South,180,0.7,1.1,86,0.00,,---,0.00,VWS V14.01,2013-06-30 09:50:00,
2013-06-30 02:55:00,61.0,56.8,30.22,South,180,0.0,0.4,86,0.00,,---,0.00,VWS V14.01,2013-06-30 09:55:00,
2013-06-30 03:00:00,60.8,56.6,30.22,South,180,0.7,0.7,86,0.00,,---,0.00,VWS V14.01,2013-06-30 10:00:00,
2013-06-30 03:05:00,60.8,56.6,30.22,South,180,0.0,0.0,86,0.00,,---,0.00,VWS V14.01,2013-06-30 10:05:00,
2013-06-30 03:10:00,60.7,56.5,30.22,South,180,0.7,0.7,86,0.00,,---,0.00,VWS V14.01,2013-06-30 10:10:00,
2013-06-30 03:15:00,60.7,56.5,30.22,South,180,0.9,0.9,86,0.00,,---,0.00,VWS V14.01,2013-06-30 10:15:00,
2013-06-30 03:20:00,60.7,56.5,30.22,South,180,0.7,0.7,86,0.00,,---,0.00,VWS V14.01,2013-06-30 10:20:00,
2013-06-30 03:25:00,60.7,56.5,30.21,South,180,0.4,0.4,86,0.00,,---,0.00,VWS V14.01,2013-06-30 10:25:00,
2013-06-30 03:30:00,60.7,56.5,30.21,South,180,0.0,0.0,86,0.00,,---,0.00,VWS V14.01,2013-06-30 10:30:00,
2013-06-30 03:35:00,60.5,56.3,30.21,South,180,0.0,0.0,86,0.00,,---,0.00,VWS V14.01,2013-06-30 10:35:00,
2013-06-30 03:40:00,60.5,56.3,30.21,South,180,0.0,0.0,86,0.00,,---,0.00,VWS V14.01,2013-06-30 10:40:00,
2013-06-30 03:45:00,60.5,56.6,30.21,South,180,0.7,0.7,87,0.00,,---,0.00,VWS V14.01,2013-06-30 10:45:00,
2013-06-30 03:50:00,60.3,56.4,30.21,South,180,1.1,1.1,87,0.00,,---,0.00,VWS V14.01,2013-06-30 10:50:00,
2013-06-30 03:55:00,60.1,56.2,30.21,South,180,0.9,0.9,87,0.00,,---,0.00,VWS V14.01,2013-06-30 10:55:00,
2013-06-30 04:00:00,60.1,56.2,30.21,South,180,0.7,0.7,87,0.00,,---,0.00,VWS V14.01,2013-06-30 11:00:00,
2013-06-30 04:05:00,60.1,56.2,30.21,South,180,0.0,0.0,87,0.00,,---,0.00,VWS V14.01,2013-06-30 11:05:00,
2013-06-30 04:10:00,60.1,56.2,30.21,South,180,0.0,0.0,87,0.00,,---,0.00,VWS V14.01,2013-06-30 11:10:00,
2013-06-30 04:15:00,60.1,56.2,30.20,South,180,0.4,0.4,87,0.00,,---,0.00,VWS V14.01,2013-06-30 11:15:00,
2013-06-30 04:20:00,60.3,56.4,30.20,South,180,0.4,0.7,87,0.00,,---,0.00,VWS V14.01,2013-06-30 11:20:00,
2013-06-30 04:25:00,60.3,56.4,30.20,South,180,0.2,0.4,87,0.00,,---,0.00,VWS V14.01,2013-06-30 11:25:00,
2013-06-30 04:30:00,60.3,56.4,30.20,South,180,0.0,0.0,87,0.00,,---,0.00,VWS V14.01,2013-06-30 11:30:00,
2013-06-30 04:35:00,60.3,56.4,30.20,South,180,0.0,0.0,87,0.00,,---,0.00,VWS V14.01,2013-06-30 11:35:00,
2013-06-30 04:40:00,60.5,56.6,30.20,South,180,0.0,0.0,87,0.00,,---,0.00,VWS V14.01,2013-06-30 11:40:00,
2013-06-30 04:45:00,60.5,56.6,30.20,South,180,1.1,1.1,87,0.00,,---,0.00,VWS V14.01,2013-06-30 11:45:00,
2013-06-30 04:50:00,60.3,56.4,30.20,South,180,0.9,0.9,87,0.00,,---,0.00,VWS V14.01,2013-06-30 11:50:00,
2013-06-30 04:55:00,60.3,56.4,30.20,South,180,0.0,0.4,87,0.00,,---,0.00,VWS V14.01,2013-06-30 11:55:00,
2013-06-30 05:00:00,60.3,56.4,30.20,South,180,0.0,0.0,87,0.00,,---,0.00,VWS V14.01,2013-06-30 12:00:00,
2013-06-30 05:05:00,60.3,56.4,30.20,South,180,0.0,0.4,87,0.00,,---,0.00,VWS V14.01,2013-06-30 12:05:00,
2013-06-30 05:10:00,60.5,56.6,30.20,South,180,0.4,0.4,87,0.00,,---,0.00,VWS V14.01,2013-06-30 12:10:00,
2013-06-30 05:15:00,60.3,56.4,30.20,South,180,0.7,0.7,87,0.00,,---,0.00,VWS V14.01,2013-06-30 12:15:00,
2013-06-30 05:20:00,60.3,56.4,30.20,South,180,0.9,0.9,87,0.00,,---,0.00,VWS V14.01,2013-06-30 12:20:00,
2013-06-30 05:25:00,60.3,56.4,30.20,South,180,0.0,0.0,87,0.00,,---,0.00,VWS V14.01,2013-06-30 12:25:00,
2013-06-30 05:30:00,60.1,56.2,30.20,South,180,0.0,0.0,87,0.00,,---,0.00,VWS V14.01,2013-06-30 12:30:00,
2013-06-30 05:35:00,60.1,56.2,30.20,South,180,0.0,0.0,87,0.00,,---,0.00,VWS V14.01,2013-06-30 12:35:00,
2013-06-30 05:40:00,60.3,56.4,30.20,South,180,0.0,0.0,87,0.00,,---,0.00,VWS V14.01,2013-06-30 12:40:00,
2013-06-30 05:45:00,60.1,56.2,30.20,South,180,0.0,0.0,87,0.00,,---,0.00,VWS V14.01,2013-06-30 12:45:00,
2013-06-30 05:50:00,60.1,56.2,30.20,South,180,0.0,0.0,87,0.00,,---,0.00,VWS V14.01,2013-06-30 12:50:00,
2013-06-30 05:55:00,60.1,56.2,30.20,South,180,0.0,0.0,87,0.00,,---,0.00,VWS V14.01,2013-06-30 12:55:00,
2013-06-30 06:00:00,60.1,56.5,30.20,South,180,0.0,0.0,88,0.00,,---,0.00,VWS V14.01,2013-06-30 13:00:00,
2013-06-30 06:05:00,60.3,56.7,30.20,South,180,0.0,0.0,88,0.00,,---,0.00,VWS V14.01,2013-06-30 13:05:00,
2013-06-30 06:10:00,60.3,56.7,30.20,South,180,0.0,0.0,88,0.00,,---,0.00,VWS V14.01,2013-06-30 13:10:00,
2013-06-30 06:15:00,60.5,56.9,30.19,South,180,0.0,0.0,88,0.00,,---,0.00,VWS V14.01,2013-06-30 13:15:00,
2013-06-30 06:20:00,60.7,57.1,30.19,South,180,0.0,0.0,88,0.00,,---,0.00,VWS V14.01,2013-06-30 13:20:00,
2013-06-30 06:25:00,60.8,57.2,30.20,South,180,0.2,0.2,88,0.00,,---,0.00,VWS V14.01,2013-06-30 13:25:00,
2013-06-30 06:30:00,60.8,57.2,30.19,South,180,0.0,0.0,88,0.00,,---,0.00,VWS V14.01,2013-06-30 13:30:00,
2013-06-30 06:35:00,61.0,57.4,30.20,South,180,0.4,0.4,88,0.00,,---,0.00,VWS V14.01,2013-06-30 13:35:00,
2013-06-30 06:40:00,61.2,57.6,30.19,South,180,0.0,0.0,88,0.00,,---,0.00,VWS V14.01,2013-06-30 13:40:00,
2013-06-30 06:45:00,61.2,57.6,30.20,South,180,0.0,0.0,88,0.00,,---,0.00,VWS V14.01,2013-06-30 13:45:00,
2013-06-30 06:50:00,61.4,57.8,30.20,South,180,0.0,0.0,88,0.00,,---,0.00,VWS V14.01,2013-06-30 13:50:00,
2013-06-30 06:55:00,61.6,58.0,30.20,South,180,0.0,0.0,88,0.00,,---,0.00,VWS V14.01,2013-06-30 13:55:00,
2013-06-30 07:00:00,61.7,58.1,30.20,South,180,0.0,0.0,88,0.00,,---,0.00,VWS V14.01,2013-06-30 14:00:00,
2013-06-30 07:05:00,61.7,58.1,30.20,South,180,0.0,0.0,88,0.00,,---,0.00,VWS V14.01,2013-06-30 14:05:00,
2013-06-30 07:10:00,62.1,58.5,30.20,South,180,0.0,0.0,88,0.00,,---,0.00,VWS V14.01,2013-06-30 14:10:00,
2013-06-30 07:15:00,62.3,58.7,30.20,South,180,0.0,0.0,88,0.00,,---,0.00,VWS V14.01,2013-06-30 14:15:00,
2013-06-30 07:20:00,62.3,58.7,30.20,South,180,0.0,0.0,88,0.00,,---,0.00,VWS V14.01,2013-06-30 14:20:00,
2013-06-30 07:25:00,62.6,58.7,30.20,South,180,0.0,0.0,87,0.00,,---,0.00,VWS V14.01,2013-06-30 14:25:00,
2013-06-30 07:30:00,62.8,59.2,30.20,South,180,0.0,0.0,88,0.00,,---,0.00,VWS V14.01,2013-06-30 14:30:00,
2013-06-30 07:35:00,63.2,59.3,30.20,South,180,0.0,0.0,87,0.00,,---,0.00,VWS V14.01,2013-06-30 14:35:00,
2013-06-30 07:40:00,63.2,59.6,30.20,South,180,0.0,0.0,88,0.00,,---,0.00,VWS V14.01,2013-06-30 14:40:00,
2013-06-30 07:45:00,63.7,60.1,30.20,South,180,0.0,0.0,88,0.00,,---,0.00,VWS V14.01,2013-06-30 14:45:00,
2013-06-30 07:50:00,64.1,60.5,30.20,South,180,0.0,0.0,88,0.00,,---,0.00,VWS V14.01,2013-06-30 14:50:00,
2013-06-30 07:55:00,64.3,60.7,30.20,South,180,0.0,0.0,88,0.00,,---,0.00,VWS V14.01,2013-06-30 14:55:00,
2013-06-30 08:00:00,64.8,61.2,30.20,South,180,0.0,0.0,88,0.00,,---,0.00,VWS V14.01,2013-06-30 15:00:00,
2013-06-30 08:05:00,65.0,61.4,30.20,South,180,0.0,0.0,88,0.00,,---,0.00,VWS V14.01,2013-06-30 15:05:00,
2013-06-30 08:10:00,65.3,61.7,30.19,South,180,0.0,0.0,88,0.00,,---,0.00,VWS V14.01,2013-06-30 15:10:00,
2013-06-30 08:15:00,65.9,62.2,30.20,South,180,1.1,1.1,88,0.00,,---,0.00,VWS V14.01,2013-06-30 15:15:00,
2013-06-30 08:20:00,66.4,62.7,30.20,South,180,1.8,1.8,88,0.00,,---,0.00,VWS V14.01,2013-06-30 15:20:00,
2013-06-30 08:25:00,66.8,63.1,30.20,South,180,1.1,1.1,88,0.00,,---,0.00,VWS V14.01,2013-06-30 15:25:00,
2013-06-30 08:30:00,67.3,63.0,30.20,South,180,0.2,0.2,86,0.00,,---,0.00,VWS V14.01,2013-06-30 15:30:00,
2013-06-30 08:35:00,67.9,63.2,30.20,South,180,1.1,1.1,85,0.00,,---,0.00,VWS V14.01,2013-06-30 15:35:00,
2013-06-30 08:40:00,68.0,63.0,30.20,South,180,0.0,0.0,84,0.00,,---,0.00,VWS V14.01,2013-06-30 15:40:00,
2013-06-30 08:45:00,68.8,63.8,30.20,South,180,1.3,1.3,84,0.00,,---,0.00,VWS V14.01,2013-06-30 15:45:00,
2013-06-30 08:50:00,68.8,63.4,30.20,South,180,1.6,1.6,83,0.00,,---,0.00,VWS V14.01,2013-06-30 15:50:00,
2013-06-30 08:55:00,69.5,63.8,30.19,South,180,0.4,0.4,82,0.00,,---,0.00,VWS V14.01,2013-06-30 15:55:00,
2013-06-30 09:00:00,69.7,63.6,30.19,South,180,2.5,2.5,81,0.00,,---,0.00,VWS V14.01,2013-06-30 16:00:00,
2013-06-30 09:05:00,70.0,63.5,30.19,South,180,0.2,0.2,80,0.00,,---,0.00,VWS V14.01,2013-06-30 16:05:00,
2013-06-30 09:10:00,70.2,63.8,30.19,South,180,0.4,0.4,80,0.00,,---,0.00,VWS V14.01,2013-06-30 16:10:00,
2013-06-30 09:15:00,70.6,64.1,30.19,South,180,0.7,0.7,80,0.00,,---,0.00,VWS V14.01,2013-06-30 16:15:00,
2013-06-30 09:20:00,71.1,63.9,30.19,South,180,0.9,0.9,78,0.00,,---,0.00,VWS V14.01,2013-06-30 16:20:00,
2013-06-30 09:25:00,71.5,63.5,30.19,South,180,1.3,1.3,76,0.00,,---,0.00,VWS V14.01,2013-06-30 16:25:00,
2013-06-30 09:30:00,72.0,63.7,30.19,South,180,1.8,1.8,75,0.00,,---,0.00,VWS V14.01,2013-06-30 16:30:00,
2013-06-30 09:35:00,72.2,63.8,30.19,South,180,1.1,1.1,75,0.00,,---,0.00,VWS V14.01,2013-06-30 16:35:00,
2013-06-30 09:40:00,72.7,64.3,30.19,South,180,1.6,1.6,75,0.00,,---,0.00,VWS V14.01,2013-06-30 16:40:00,
2013-06-30 09:45:00,72.9,64.1,30.18,South,180,0.2,0.2,74,0.00,,---,0.00,VWS V14.01,2013-06-30 16:45:00,
2013-06-30 09:50:00,73.4,64.2,30.18,South,180,1.1,1.6,73,0.00,,---,0.00,VWS V14.01,2013-06-30 16:50:00,
2013-06-30 09:55:00,73.8,64.2,30.18,South,180,0.9,0.9,72,0.00,,---,0.00,VWS V14.01,2013-06-30 16:55:00,
2013-06-30 10:00:00,74.2,64.2,30.18,South,180,1.3,1.3,71,0.00,,---,0.00,VWS V14.01,2013-06-30 17:00:00,
2013-06-30 10:05:00,74.5,64.9,30.18,ESE,112,2.0,2.0,72,0.00,,---,0.00,VWS V14.01,2013-06-30 17:05:00,
2013-06-30 10:10:00,74.9,64.9,30.18,WNW,292,0.7,0.7,71,0.00,,---,0.00,VWS V14.01,2013-06-30 17:10:00,
2013-06-30 10:15:00,75.2,65.2,30.18,ESE,112,0.4,0.4,71,0.00,,---,0.00,VWS V14.01,2013-06-30 17:15:00,
2013-06-30 10:20:00,76.0,65.5,30.18,East,90,1.8,1.8,70,0.00,,---,0.00,VWS V14.01,2013-06-30 17:20:00,
2013-06-30 10:25:00,76.5,66.4,30.18,East,90,1.8,1.8,71,0.00,,---,0.00,VWS V14.01,2013-06-30 17:25:00,
2013-06-30 10:30:00,77.0,66.9,30.17,East,90,1.8,1.8,71,0.00,,---,0.00,VWS V14.01,2013-06-30 17:30:00,
2013-06-30 10:35:00,77.8,65.5,30.17,South,180,2.2,2.2,66,0.00,,---,0.00,VWS V14.01,2013-06-30 17:35:00,
2013-06-30 10:40:00,77.9,66.1,30.17,SE,135,0.4,0.4,67,0.00,,---,0.00,VWS V14.01,2013-06-30 17:40:00,
2013-06-30 10:45:00,78.5,64.4,30.17,South,180,1.1,2.5,62,0.00,,---,0.00,VWS V14.01,2013-06-30 17:45:00,
2013-06-30 10:50:00,78.5,64.4,30.17,South,180,0.7,0.7,62,0.00,,---,0.00,VWS V14.01,2013-06-30 17:50:00,
2013-06-30 10:55:00,78.7,64.6,30.17,South,180,0.7,0.7,62,0.00,,---,0.00,VWS V14.01,2013-06-30 17:55:00,
2013-06-30 11:00:00,79.2,64.6,30.17,South,180,1.8,1.8,61,0.00,,---,0.00,VWS V14.01,2013-06-30 18:00:00,
2013-06-30 11:05:00,79.6,64.5,30.17,South,180,0.7,0.7,60,0.00,,---,0.00,VWS V14.01,2013-06-30 18:05:00,
2013-06-30 11:10:00,79.9,65.3,30.17,ENE,68,2.9,2.9,61,0.00,,---,0.00,VWS V14.01,2013-06-30 18:10:00,
2013-06-30 11:15:00,80.6,65.4,30.16,South,180,1.8,1.8,60,0.00,,---,0.00,VWS V14.01,2013-06-30 18:15:00,
2013-06-30 11:20:00,81.0,65.3,30.16,NE,45,2.0,2.0,59,0.00,,---,0.00,VWS V14.01,2013-06-30 18:20:00,
2013-06-30 11:25:00,81.4,66.7,30.16,East,90,2.7,2.7,61,0.00,,---,0.00,VWS V14.01,2013-06-30 18:25:00,
2013-06-30 11:30:00,81.7,66.5,30.16,NE,45,1.3,1.3,60,0.00,,---,0.00,VWS V14.01,2013-06-30 18:30:00,
2013-06-30 11:35:00,82.3,67.0,30.16,South,180,1.3,1.3,60,0.00,,---,0.00,VWS V14.01,2013-06-30 18:35:00,
2013-06-30 11:40:00,82.4,66.7,30.16,South,180,0.4,0.4,59,0.00,,---,0.00,VWS V14.01,2013-06-30 18:40:00,
2013-06-30 11:45:00,82.8,66.0,30.16,South,180,2.5,2.5,57,0.00,,---,0.00,VWS V14.01,2013-06-30 18:45:00,
2013-06-30 11:50:00,83.0,67.2,30.16,South,180,0.4,0.4,59,0.00,,---,0.00,VWS V14.01,2013-06-30 18:50:00,
2013-06-30 11:55:00,83.3,66.0,30.16,South,180,0.7,0.7,56,0.00,,---,0.00,VWS V14.01,2013-06-30 18:55:00,
2013-06-30 12:00:00,83.5,66.7,30.15,NNE,22,2.7,2.7,57,0.00,,---,0.00,VWS V14.01,2013-06-30 19:00:00,
2013-06-30 12:05:00,83.9,68.1,30.15,SSE,158,1.3,1.3,59,0.00,,---,0.00,VWS V14.01,2013-06-30 19:05:00,
2013-06-30 12:10:00,84.2,66.8,30.15,NW,315,1.8,1.8,56,0.00,,---,0.00,VWS V14.01,2013-06-30 19:10:00,
2013-06-30 12:15:00,84.4,67.5,30.15,ESE,112,1.8,1.8,57,0.00,,---,0.00,VWS V14.01,2013-06-30 19:15:00,
2013-06-30 12:20:00,84.8,67.9,30.15,South,180,1.3,1.3,57,0.00,,---,0.00,VWS V14.01,2013-06-30 19:20:00,
2013-06-30 12:25:00,85.0,68.1,30.15,South,180,2.2,2.2,57,0.00,,---,0.00,VWS V14.01,2013-06-30 19:25:00,
2013-06-30 12:30:00,85.1,68.2,30.15,South,180,0.2,0.2,57,0.00,,---,0.00,VWS V14.01,2013-06-30 19:30:00,
2013-06-30 12:35:00,85.5,67.0,30.14,NNE,22,2.7,2.7,54,0.00,,---,0.00,VWS V14.01,2013-06-30 19:35:00,
2013-06-30 12:40:00,85.5,67.0,30.14,NNW,338,1.6,1.6,54,0.00,,---,0.00,VWS V14.01,2013-06-30 19:40:00,
2013-06-30 12:45:00,86.2,68.2,30.14,East,90,1.8,1.8,55,0.00,,---,0.00,VWS V14.01,2013-06-30 19:45:00,
2013-06-30 12:50:00,86.6,68.0,30.14,ENE,68,1.3,1.3,54,0.00,,---,0.00,VWS V14.01,2013-06-30 19:50:00,
2013-06-30 12:55:00,86.8,68.2,30.14,South,180,1.3,1.3,54,0.00,,---,0.00,VWS V14.01,2013-06-30 19:55:00,
2013-06-30 13:00:00,86.8,67.6,30.14,NW,315,0.7,0.7,53,0.00,,---,0.00,VWS V14.01,2013-06-30 20:00:00,
2013-06-30 13:05:00,86.6,67.4,30.14,South,180,2.7,2.7,53,0.00,,---,0.00,VWS V14.01,2013-06-30 20:05:00,
2013-06-30 13:10:00,87.1,68.4,30.13,NNW,338,1.1,2.0,54,0.00,,---,0.00,VWS V14.01,2013-06-30 20:10:00,
2013-06-30 13:15:00,87.5,68.8,30.13,SE,135,0.4,0.4,54,0.00,,---,0.00,VWS V14.01,2013-06-30 20:15:00,
2013-06-30 13:20:00,88.0,67.1,30.13,South,180,1.8,1.8,50,0.00,,---,0.00,VWS V14.01,2013-06-30 20:20:00,
2013-06-30 13:25:00,87.8,66.9,30.13,SE,135,2.2,2.2,50,0.00,,---,0.00,VWS V14.01,2013-06-30 20:25:00,
2013-06-30 13:30:00,87.8,68.0,30.13,South,180,0.7,0.7,52,0.00,,---,0.00,VWS V14.01,2013-06-30 20:30:00,
2013-06-30 13:35:00,87.8,66.9,30.13,NNW,338,0.9,0.9,50,0.00,,---,0.00,VWS V14.01,2013-06-30 20:35:00,
2013-06-30 13:40:00,87.8,67.4,30.13,South,180,1.1,1.1,51,0.00,,---,0.00,VWS V14.01,2013-06-30 20:40:00,
2013-06-30 13:45:00,88.2,68.4,30.13,South,180,2.2,2.2,52,0.00,,---,0.00,VWS V14.01,2013-06-30 20:45:00,
2013-06-30 13:50:00,88.6,68.2,30.13,ESE,112,1.8,1.8,51,0.00,,---,0.00,VWS V14.01,2013-06-30 20:50:00,
2013-06-30 13:55:00,88.6,68.2,30.13,South,180,1.1,1.1,51,0.00,,---,0.00,VWS V14.01,2013-06-30 20:55:00,
2013-06-30 14:00:00,88.6,68.2,30.13,South,180,1.6,1.6,51,0.00,,---,0.00,VWS V14.01,2013-06-30 21:00:00,
2013-06-30 14:05:00,88.9,69.0,30.12,South,180,1.3,1.3,52,0.00,,---,0.00,VWS V14.01,2013-06-30 21:05:00,
2013-06-30 14:10:00,89.5,69.6,30.12,East,90,3.4,3.4,52,0.00,,---,0.00,VWS V14.01,2013-06-30 21:10:00,
2013-06-30 14:15:00,89.3,67.7,30.12,South,180,1.8,1.8,49,0.00,,---,0.00,VWS V14.01,2013-06-30 21:15:00,
2013-06-30 14:20:00,89.3,67.7,30.12,South,180,0.9,0.9,49,0.00,,---,0.00,VWS V14.01,2013-06-30 21:20:00,
2013-06-30 14:25:00,89.3,68.2,30.12,South,180,1.1,1.1,50,0.00,,---,0.00,VWS V14.01,2013-06-30 21:25:00,
2013-06-30 14:30:00,90.0,69.5,30.12,ENE,68,1.1,1.1,51,0.00,,---,0.00,VWS V14.01,2013-06-30 21:30:00,
2013-06-30 14:35:00,90.4,69.2,30.12,NE,45,3.8,3.8,50,0.00,,---,0.00,VWS V14.01,2013-06-30 21:35:00,
2013-06-30 14:40:00,90.4,68.7,30.12,South,180,2.5,2.5,49,0.00,,---,0.00,VWS V14.01,2013-06-30 21:40:00,
2013-06-30 14:45:00,90.4,66.8,30.12,South,180,1.1,1.1,46,0.00,,---,0.00,VWS V14.01,2013-06-30 21:45:00,
2013-06-30 14:50:00,90.0,68.3,30.12,South,180,0.9,0.9,49,0.00,,---,0.00,VWS V14.01,2013-06-30 21:50:00,
2013-06-30 14:55:00,90.4,68.1,30.12,South,180,1.1,1.1,48,0.00,,---,0.00,VWS V14.01,2013-06-30 21:55:00,
2013-06-30 15:00:00,90.5,68.8,30.12,South,180,1.8,1.8,49,0.00,,---,0.00,VWS V14.01,2013-06-30 22:00:00,
2013-06-30 15:05:00,90.7,68.9,30.12,ESE,112,1.1,1.1,49,0.00,,---,0.00,VWS V14.01,2013-06-30 22:05:00,
2013-06-30 15:10:00,91.1,69.3,30.12,NE,45,1.3,1.3,49,0.00,,---,0.00,VWS V14.01,2013-06-30 22:10:00,
2013-06-30 15:15:00,91.3,68.3,30.12,South,180,0.4,0.4,47,0.00,,---,0.00,VWS V14.01,2013-06-30 22:15:00,
2013-06-30 15:20:00,91.1,68.1,30.11,South,180,0.4,0.4,47,0.00,,---,0.00,VWS V14.01,2013-06-30 22:20:00,
2013-06-30 15:25:00,91.1,68.1,30.11,South,180,0.2,0.2,47,0.00,,---,0.00,VWS V14.01,2013-06-30 22:25:00,
2013-06-30 15:30:00,91.1,68.7,30.11,South,180,1.1,1.1,48,0.00,,---,0.00,VWS V14.01,2013-06-30 22:30:00,
2013-06-30 15:35:00,90.7,66.5,30.11,ENE,68,0.9,0.9,45,0.00,,---,0.00,VWS V14.01,2013-06-30 22:35:00,
2013-06-30 15:40:00,90.7,67.7,30.11,ENE,68,2.7,2.7,47,0.00,,---,0.00,VWS V14.01,2013-06-30 22:40:00,
2013-06-30 15:45:00,90.9,68.5,30.11,South,180,1.1,1.1,48,0.00,,---,0.00,VWS V14.01,2013-06-30 22:45:00,
2013-06-30 15:50:00,90.7,67.1,30.11,NNE,22,1.8,1.8,46,0.00,,---,0.00,VWS V14.01,2013-06-30 22:50:00,
2013-06-30 15:55:00,90.7,67.7,30.11,ENE,68,1.3,1.3,47,0.00,,---,0.00,VWS V14.01,2013-06-30 22:55:00,
2013-06-30 16:00:00,90.5,67.5,30.11,South,180,0.7,0.7,47,0.00,,---,0.00,VWS V14.01,2013-06-30 23:00:00,
2013-06-30 16:05:00,90.7,67.7,30.10,South,180,3.6,3.6,47,0.00,,---,0.00,VWS V14.01,2013-06-30 23:05:00,
2013-06-30 16:10:00,91.3,68.3,30.11,WSW,248,1.6,1.6,47,0.00,,---,0.00,VWS V14.01,2013-06-30 23:10:00,
2013-06-30 16:15:00,92.0,68.9,30.10,WNW,292,2.2,2.2,47,0.00,,---,0.00,VWS V14.01,2013-06-30 23:15:00,
2013-06-30 16:20:00,91.6,67.3,30.10,South,180,0.4,0.4,45,0.00,,---,0.00,VWS V14.01,2013-06-30 23:20:00,
2013-06-30 16:25:00,90.9,67.3,30.10,NW,315,1.1,1.1,46,0.00,,---,0.00,VWS V14.01,2013-06-30 23:25:00,
2013-06-30 16:30:00,90.4,66.8,30.10,South,180,2.7,2.7,46,0.00,,---,0.00,VWS V14.01,2013-06-30 23:30:00,
2013-06-30 16:35:00,90.0,66.5,30.10,South,180,1.1,1.1,46,0.00,,---,0.00,VWS V14.01,2013-06-30 23:35:00,
2013-06-30 16:40:00,89.5,66.6,30.10,ESE,112,1.1,1.1,47,0.00,,---,0.00,VWS V14.01,2013-06-30 23:40:00,
2013-06-30 16:45:00,89.3,65.8,30.10,West,270,1.1,1.1,46,0.00,,---,0.00,VWS V14.01,2013-06-30 23:45:00,
2013-06-30 16:50:00,88.9,66.1,30.10,South,180,1.6,1.6,47,0.00,,---,0.00,VWS V14.01,2013-06-30 23:50:00,
2013-06-30 16:55:00,88.7,65.9,30.10,South,180,0.7,0.7,47,0.00,,---,0.00,VWS V14.01,2013-06-30 23:55:00,
2013-06-30 17:00:00,88.6,66.4,30.10,NNE,22,1.8,1.8,48,0.00,,---,0.00,VWS V14.01,2013-07-01 00:00:00,
2013-06-30 17:05:00,88.6,66.4,30.10,NNE,22,1.8,1.8,48,0.00,,---,0.00,VWS V14.01,2013-07-01 00:05:00,
2013-06-30 17:10:00,88.2,64.8,30.09,WNW,292,2.5,2.5,46,0.00,,---,0.00,VWS V14.01,2013-07-01 00:10:00,
2013-06-30 17:15:00,88.0,65.9,30.09,South,180,0.0,1.8,48,0.00,,---,0.00,VWS V14.01,2013-07-01 00:15:00,
2013-06-30 17:20:00,87.8,65.1,30.09,South,180,1.1,1.1,47,0.00,,---,0.00,VWS V14.01,2013-07-01 00:20:00,
2013-06-30 17:25:00,87.8,66.3,30.09,NE,45,2.9,2.9,49,0.00,,---,0.00,VWS V14.01,2013-07-01 00:25:00,
2013-06-30 17:30:00,87.7,66.2,30.09,ESE,112,0.4,0.4,49,0.00,,---,0.00,VWS V14.01,2013-07-01 00:30:00,
2013-06-30 17:35:00,87.5,66.6,30.09,NW,315,1.1,1.1,50,0.00,,---,0.00,VWS V14.01,2013-07-01 00:35:00,
2013-06-30 17:39:00,86.9,66.6,30.09,NNW,338,0.4,0.4,51,0.00,,---,0.00,VWS V14.01,2013-07-01 00:39:00,
2013-06-30 17:44:00,86.6,65.8,30.09,NNW,338,0.4,1.3,50,0.00,,---,0.00,VWS V14.01,2013-07-01 00:44:00,
2013-06-30 17:49:00,86.8,65.9,30.09,ENE,68,1.8,1.8,50,0.00,,---,0.00,VWS V14.01,2013-07-01 00:49:00,
2013-06-30 17:54:00,86.4,66.2,30.09,NW,315,0.7,0.7,51,0.00,,---,0.00,VWS V14.01,2013-07-01 00:54:00,
2013-06-30 17:59:00,86.0,66.3,30.09,NW,315,0.7,0.7,52,0.00,,---,0.00,VWS V14.01,2013-07-01 00:59:00,
2013-06-30 18:04:00,85.7,66.1,30.09,NW,315,0.0,0.4,52,0.00,,---,0.00,VWS V14.01,2013-07-01 01:04:00,
2013-06-30 18:09:00,85.5,66.4,30.09,NW,315,0.0,0.0,53,0.00,,---,0.00,VWS V14.01,2013-07-01 01:09:00,
2013-06-30 18:14:00,85.3,66.2,30.08,NW,315,0.0,0.0,53,0.00,,---,0.00,VWS V14.01,2013-07-01 01:14:00,
2013-06-30 18:19:00,85.3,66.2,30.09,NW,315,0.0,0.0,53,0.00,,---,0.00,VWS V14.01,2013-07-01 01:19:00,
2013-06-30 18:24:00,85.1,66.6,30.08,NNW,338,0.0,0.0,54,0.00,,---,0.00,VWS V14.01,2013-07-01 01:24:00,
2013-06-30 18:29:00,85.0,67.0,30.08,ENE,68,1.8,2.9,55,0.00,,---,0.00,VWS V14.01,2013-07-01 01:29:00,
2013-06-30 18:34:00,84.8,66.3,30.08,South,180,0.9,0.9,54,0.00,,---,0.00,VWS V14.01,2013-07-01 01:34:00,
2013-06-30 18:39:00,84.6,66.7,30.08,South,180,0.0,0.0,55,0.00,,---,0.00,VWS V14.01,2013-07-01 01:39:00,
2013-06-30 18:44:00,84.4,67.0,30.08,South,180,0.0,0.0,56,0.00,,---,0.00,VWS V14.01,2013-07-01 01:44:00,
2013-06-30 18:49:00,84.1,66.7,30.08,South,180,1.1,1.1,56,0.00,,---,0.00,VWS V14.01,2013-07-01 01:49:00,
2013-06-30 18:54:00,83.9,67.1,30.08,South,180,0.2,0.2,57,0.00,,---,0.00,VWS V14.01,2013-07-01 01:54:00,
2013-06-30 18:59:00,83.3,66.0,30.08,South,180,0.0,0.4,56,0.00,,---,0.00,VWS V14.01,2013-07-01 01:59:00,
2013-06-30 19:04:00,83.2,66.9,30.08,South,180,0.0,1.3,58,0.00,,---,0.00,VWS V14.01,2013-07-01 02:04:00,
2013-06-30 19:09:00,83.0,66.7,30.08,South,180,0.0,0.0,58,0.00,,---,0.00,VWS V14.01,2013-07-01 02:09:00,
2013-06-30 19:14:00,82.6,66.8,30.08,South,180,0.0,0.0,59,0.00,,---,0.00,VWS V14.01,2013-07-01 02:14:00,
2013-06-30 19:19:00,82.4,67.1,30.08,South,180,0.0,0.0,60,0.00,,---,0.00,VWS V14.01,2013-07-01 02:19:00,
2013-06-30 19:24:00,82.1,67.3,30.08,South,180,0.0,0.0,61,0.00,,---,0.00,VWS V14.01,2013-07-01 02:24:00,
2013-06-30 19:29:00,81.9,68.1,30.08,South,180,0.0,0.0,63,0.00,,---,0.00,VWS V14.01,2013-07-01 02:29:00,
2013-06-30 19:34:00,81.2,67.4,30.08,South,180,0.0,0.0,63,0.00,,---,0.00,VWS V14.01,2013-07-01 02:34:00,
2013-06-30 19:39:00,80.8,67.5,30.08,South,180,0.0,0.0,64,0.00,,---,0.00,VWS V14.01,2013-07-01 02:39:00,
2013-06-30 19:44:00,80.5,67.2,30.08,South,180,0.0,0.0,64,0.00,,---,0.00,VWS V14.01,2013-07-01 02:44:00,
2013-06-30 19:49:00,80.1,67.7,30.08,South,180,0.0,0.0,66,0.00,,---,0.00,VWS V14.01,2013-07-01 02:49:00,
2013-06-30 19:54:00,79.7,67.8,30.08,South,180,0.0,0.0,67,0.00,,---,0.00,VWS V14.01,2013-07-01 02:54:00,
2013-06-30 19:59:00,79.4,67.9,30.08,South,180,0.0,0.0,68,0.00,,---,0.00,VWS V14.01,2013-07-01 02:59:00,
2013-06-30 20:04:00,79.0,67.6,30.08,South,180,0.0,0.0,68,0.00,,---,0.00,VWS V14.01,2013-07-01 03:04:00,
2013-06-30 20:09:00,78.8,67.4,30.08,South,180,0.0,0.0,68,0.00,,---,0.00,VWS V14.01,2013-07-01 03:09:00,
2013-06-30 20:14:00,78.5,67.5,30.08,South,180,0.0,0.0,69,0.00,,---,0.00,VWS V14.01,2013-07-01 03:14:00,
2013-06-30 20:19:00,78.3,67.7,30.08,South,180,0.0,0.0,70,0.00,,---,0.00,VWS V14.01,2013-07-01 03:19:00,
2013-06-30 20:24:00,77.9,67.3,30.09,South,180,0.0,0.0,70,0.00,,---,0.00,VWS V14.01,2013-07-01 03:24:00,
2013-06-30 20:29:00,77.8,67.2,30.09,South,180,0.0,0.0,70,0.00,,---,0.00,VWS V14.01,2013-07-01 03:29:00,
2013-06-30 20:34:00,77.4,67.3,30.08,South,180,0.0,0.0,71,0.00,,---,0.00,VWS V14.01,2013-07-01 03:34:00,
2013-06-30 20:39:00,77.4,67.3,30.09,South,180,0.0,0.0,71,0.00,,---,0.00,VWS V14.01,2013-07-01 03:39:00,
2013-06-30 20:44:00,77.2,67.1,30.09,South,180,0.0,0.0,71,0.00,,---,0.00,VWS V14.01,2013-07-01 03:44:00,
2013-06-30 20:49:00,76.9,67.2,30.09,South,180,0.0,0.0,72,0.00,,---,0.00,VWS V14.01,2013-07-01 03:49:00,
2013-06-30 20:54:00,76.7,67.4,30.09,South,180,0.4,0.4,73,0.00,,---,0.00,VWS V14.01,2013-07-01 03:54:00,
2013-06-30 20:59:00,76.5,67.2,30.09,South,180,0.0,0.0,73,0.00,,---,0.00,VWS V14.01,2013-07-01 03:59:00,
2013-06-30 21:01:00,76.5,67.2,30.09,South,180,0.0,0.0,73,0.00,,---,0.00,VWS V14.01,2013-07-01 04:01:00,
2013-06-30 21:06:00,76.1,67.2,30.09,South,180,0.0,0.0,74,0.00,,---,0.00,VWS V14.01,2013-07-01 04:06:00,
2013-06-30 21:11:00,76.0,67.1,30.09,South,180,0.0,0.0,74,0.00,,---,0.00,VWS V14.01,2013-07-01 04:11:00,
2013-06-30 21:16:00,75.4,66.9,30.09,South,180,0.4,0.4,75,0.00,,---,0.00,VWS V14.01,2013-07-01 04:16:00,
2013-06-30 21:21:00,75.2,66.7,30.09,South,180,1.3,1.3,75,0.00,,---,0.00,VWS V14.01,2013-07-01 04:21:00,
2013-06-30 21:26:00,74.9,66.8,30.10,South,180,0.4,0.9,76,0.00,,---,0.00,VWS V14.01,2013-07-01 04:26:00,
2013-06-30 21:31:00,74.7,67.0,30.10,South,180,0.9,1.3,77,0.00,,---,0.00,VWS V14.01,2013-07-01 04:31:00,
2013-06-30 21:36:00,74.5,66.8,30.10,South,180,1.1,1.1,77,0.00,,---,0.00,VWS V14.01,2013-07-01 04:36:00,
2013-06-30 21:41:00,74.3,67.0,30.10,South,180,0.9,0.9,78,0.00,,---,0.00,VWS V14.01,2013-07-01 04:41:00,
2013-06-30 21:46:00,74.2,66.9,30.10,South,180,0.7,0.7,78,0.00,,---,0.00,VWS V14.01,2013-07-01 04:46:00,
2013-06-30 21:51:00,74.0,66.7,30.11,South,180,0.4,0.4,78,0.00,,---,0.00,VWS V14.01,2013-07-01 04:51:00,
2013-06-30 21:56:00,73.8,66.5,30.11,South,180,1.6,1.6,78,0.00,,---,0.00,VWS V14.01,2013-07-01 04:56:00,
2013-06-30 22:01:00,73.4,66.5,30.11,South,180,0.4,0.4,79,0.00,,---,0.00,VWS V14.01,2013-07-01 05:01:00,
2013-06-30 22:06:00,73.3,66.4,30.11,South,180,0.9,1.1,79,0.00,,---,0.00,VWS V14.01,2013-07-01 05:06:00,
2013-06-30 22:11:00,73.1,66.2,30.11,South,180,0.0,0.0,79,0.00,,---,0.00,VWS V14.01,2013-07-01 05:11:00,
2013-06-30 22:16:00,73.1,66.2,30.11,South,180,0.0,0.0,79,0.00,,---,0.00,VWS V14.01,2013-07-01 05:16:00,
2013-06-30 22:21:00,72.9,65.7,30.12,South,180,0.0,0.0,78,0.00,,---,0.00,VWS V14.01,2013-07-01 05:21:00,
2013-06-30 22:26:00,72.7,65.4,30.12,South,180,0.0,0.0,78,0.00,,---,0.00,VWS V14.01,2013-07-01 05:26:00,
2013-06-30 22:31:00,72.5,65.3,30.12,South,180,0.0,0.0,78,0.00,,---,0.00,VWS V14.01,2013-07-01 05:31:00,
2013-06-30 22:36:00,72.4,64.8,30.12,South,180,0.4,0.4,77,0.00,,---,0.00,VWS V14.01,2013-07-01 05:36:00,
2013-06-30 22:41:00,72.2,64.6,30.12,South,180,0.0,0.0,77,0.00,,---,0.00,VWS V14.01,2013-07-01 05:41:00,
2013-06-30 22:46:00,72.0,64.4,30.12,South,180,0.0,0.0,77,0.00,,---,0.00,VWS V14.01,2013-07-01 05:46:00,
2013-06-30 22:51:00,71.8,64.6,30.12,South,180,0.0,0.0,78,0.00,,---,0.00,VWS V14.01,2013-07-01 05:51:00,
2013-06-30 22:56:00,71.5,64.3,30.12,South,180,0.0,0.0,78,0.00,,---,0.00,VWS V14.01,2013-07-01 05:56:00,
2013-06-30 23:01:00,71.3,64.1,30.13,South,180,0.0,0.0,78,0.00,,---,0.00,VWS V14.01,2013-07-01 06:01:00,
2013-06-30 23:06:00,71.3,64.5,30.13,South,180,0.0,0.0,79,0.00,,---,0.00,VWS V14.01,2013-07-01 06:06:00,
2013-06-30 23:11:00,70.9,64.1,30.13,South,180,0.2,0.2,79,0.00,,---,0.00,VWS V14.01,2013-07-01 06:11:00,
2013-06-30 23:16:00,70.7,64.2,30.13,South,180,0.7,0.7,80,0.00,,---,0.00,VWS V14.01,2013-07-01 06:16:00,
2013-06-30 23:21:00,70.6,64.1,30.13,South,180,1.1,1.1,80,0.00,,---,0.00,VWS V14.01,2013-07-01 06:21:00,
2013-06-30 23:26:00,70.2,63.8,30.13,South,180,0.4,0.4,80,0.00,,---,0.00,VWS V14.01,2013-07-01 06:26:00,
2013-06-30 23:31:00,70.2,64.1,30.13,South,180,1.3,1.3,81,0.00,,---,0.00,VWS V14.01,2013-07-01 06:31:00,
2013-06-30 23:36:00,70.0,63.9,30.14,South,180,0.7,0.7,81,0.00,,---,0.00,VWS V14.01,2013-07-01 06:36:00,
2013-06-30 23:41:00,69.8,63.7,30.14,South,180,0.9,0.9,81,0.00,,---,0.00,VWS V14.01,2013-07-01 06:41:00,
2013-06-30 23:46:00,69.7,63.6,30.14,South,180,0.4,0.4,81,0.00,,---,0.00,VWS V14.01,2013-07-01 06:46:00,
2013-06-30 23:51:00,69.5,63.4,30.14,South,180,0.0,0.0,81,0.00,,---,0.00,VWS V14.01,2013-07-01 06:51:00,
2013-06-30 23:56:00,69.3,63.6,30.14,South,180,0.4,0.4,82,0.00,,---,0.00,VWS V14.01,2013-07-01 06:56:00,